09:46
Airports
History
Links
Donate
Help keep this website running!
PayPal
Bitcoin
This page is community maintained. The information is intended for PC simulator navigation or reference.
Always use approved charts for navigation.
CYUB
TUKTOYAKTUK
TUKTOYAKTUK (CYUB)
Tuktoyaktuk, Northwest Territories, Canada
4
Lat/Lng:69° 26' 0" N / 133° 1' 35.01" W
69.433334 / -133.026391
Elevation:15'ft / 5mMSL
ID / ICAO:CYUB
Runways:1
Longest:09-27
Gravel 1,529m / 5,016ft
METAR07:00 GMT 2017-10-23
Altimeter: 29.77
Visibility: 10.0 statute miles
Wind: 4 knots (from 070°)
Temp: -4°c / 25°f
Humidity: 92.7%

METAR: CYUB 230700Z 07004KT 10SM -SN FEW008 OVC036 M04/M05 A2977 RMK SC2SC6 SLP083

(Powered by phpweather)
Airport Radio Frequencies
MANDATORY FREQ: 122.1
Nearby VORs <50NM
Nearby NDBs
Runway 09 / 27
Dimensions:1528.9 x 45.7m 5016' x 150'ft
Surface:Gravel
Edge Lights:Medium intensity
Runway 09 [A]Runway 27 [B]
Heading:124°TH 304°TH
Lat:
Lng:
69° 26' 14.01"N
133° 2' 33"W
69° 25' 45.99"N
133° 0' 37.01"W
TDZ:Yes, lighted
User Notes and Comments
69° 26' 0" N / 133° 1' 35.01" W
Distance To
Airport ID:
Nearby Airports
(U) INUVIK MIKE ZUBKO 78.9 NM
CYEV ( WX ) S 188°
4 Aklavik 97.0 NM
CYKD SSW 210°
4 FORT MCPHERSON 147.5 NM
CZFM ( WX ) SSW 198°
(C) Midway 162.2 NM
CBA4 SSW 200°
4 Old Crow 215.1 NM
CYOC ( WX ) SW 233°
4 PAULATUK 217.9 NM
CYPC E 91°
4 Eagle Plains 223.2 NM
AJ2 SSW 204°
VFR Chart
Flight Planning at SkyVector.com